Time;durP1;ratioP1;P1;durP2;ratioP2;P2;SDS_P1;SDS_P2;PMS_P1;PMS_P2;Temp;Humidity;BMP_temperature;BMP_pressure;BME280_temperature;BME280_humidity;BME280_pressure;Samples;Min_cycle;Max_cycle;Signal;HPM_P1;HPM_P2
2023/04/01 00:01:54;;;;;;;10.38;3.53;;;9.80;99.90;;;;;;5073307;28;20082;-63
2023/04/01 00:04:20;;;;;;;5.18;2.90;;;9.90;99.90;;;;;;5073049;28;20028;-63
2023/04/01 00:06:47;;;;;;;6.93;3.20;;;9.80;99.90;;;;;;5073432;28;20036;-63
2023/04/01 00:09:13;;;;;;;7.72;2.80;;;9.80;99.90;;;;;;5072931;28;20047;-63
2023/04/01 00:11:39;;;;;;;5.75;2.25;;;9.80;99.90;;;;;;5073131;28;20025;-63
2023/04/01 00:14:06;;;;;;;7.78;2.72;;;9.80;99.90;;;;;;5073140;28;20103;-63
2023/04/01 00:16:32;;;;;;;2.50;1.88;;;9.80;99.90;;;;;;5073318;28;20024;-63
2023/04/01 00:18:58;;;;;;;8.30;2.35;;;9.80;99.90;;;;;;5072150;28;20547;-63
2023/04/01 00:21:23;;;;;;;3.53;1.85;;;9.80;99.90;;;;;;5073359;28;20028;-63
2023/04/01 00:23:50;;;;;;;4.95;1.50;;;9.90;99.90;;;;;;5073181;28;20025;-63
2023/04/01 00:26:18;;;;;;;3.28;1.40;;;9.80;99.90;;;;;;5073158;28;20028;-63
2023/04/01 00:28:44;;;;;;;4.75;1.85;;;9.90;99.90;;;;;;5072927;28;20028;-63
2023/04/01 00:31:11;;;;;;;3.83;1.27;;;9.80;99.90;;;;;;5076769;28;20428;-63
2023/04/01 00:33:37;;;;;;;2.85;1.38;;;9.90;99.90;;;;;;5076908;28;20016;-63
2023/04/01 00:36:09;;;;;;;3.97;1.48;;;9.80;99.90;;;;;;5075533;28;20429;-63
2023/04/01 00:38:36;;;;;;;2.05;1.10;;;9.80;99.90;;;;;;5077081;28;20039;-63
2023/04/01 00:41:01;;;;;;;2.95;1.35;;;9.80;99.90;;;;;;5076648;28;20487;-63
2023/04/01 00:43:27;;;;;;;2.72;1.30;;;9.80;99.90;;;;;;5075625;28;20040;-64
2023/04/01 00:45:52;;;;;;;2.33;1.38;;;9.70;99.90;;;;;;5076795;28;20111;-63
2023/04/01 00:48:25;;;;;;;4.10;1.45;;;9.80;99.90;;;;;;5076561;28;20032;-63
2023/04/01 00:50:54;;;;;;;5.73;1.67;;;9.80;99.90;;;;;;5076569;28;20028;-63
2023/04/01 00:53:21;;;;;;;4.80;2.10;;;9.70;99.90;;;;;;5076482;28;20281;-63
2023/04/01 00:55:53;;;;;;;5.00;1.95;;;9.70;99.90;;;;;;5076681;28;20016;-63
2023/04/01 00:58:23;;;;;;;3.33;1.90;;;9.70;99.90;;;;;;5076647;28;20055;-63
2023/04/01 01:00:49;;;;;;;4.05;2.20;;;;;;;;;;5075359;28;20108;-63
2023/04/01 01:03:15;;;;;;;5.88;2.47;;;9.60;99.90;;;;;;5076331;28;20032;-63
2023/04/01 01:06:23;;;;;;;4.95;2.65;;;9.60;99.90;;;;;;5076316;28;20035;-64
2023/04/01 01:09:07;;;;;;;7.03;2.90;;;9.60;99.90;;;;;;5075977;28;20406;-63
2023/04/01 01:11:39;;;;;;;6.47;3.13;;;;;;;;;;5076300;28;20063;-63
2023/04/01 01:14:17;;;;;;;7.72;3.50;;;;;;;;;;5076205;28;20025;-63
2023/04/01 01:16:45;;;;;;;5.45;2.80;;;;;;;;;;5076137;28;20386;-63
2023/04/01 01:19:43;;;;;;;3.38;2.75;;;9.40;99.90;;;;;;5076238;28;20036;-63
2023/04/01 01:22:35;;;;;;;5.85;2.75;;;9.50;99.90;;;;;;5076162;28;20513;-63
2023/04/01 01:25:29;;;;;;;6.38;2.42;;;9.50;99.90;;;;;;5076033;28;20086;-63
2023/04/01 01:28:13;;;;;;;6.00;2.45;;;9.40;99.90;;;;;;5074842;28;20025;-63
2023/04/01 01:30:52;;;;;;;5.43;2.20;;;9.50;99.90;;;;;;5075925;28;20024;-63
2023/04/01 01:35:59;;;;;;;3.28;2.00;;;9.40;99.90;;;;;;5090907;28;20292;-63
2023/04/01 01:38:29;;;;;;;5.78;2.80;;;9.40;99.90;;;;;;5090839;28;20055;-63
2023/04/01 01:40:57;;;;;;;3.90;2.17;;;9.60;99.90;;;;;;5090944;28;20470;-63
2023/04/01 01:43:28;;;;;;;12.07;2.35;;;9.40;99.90;;;;;;5091091;28;20058;-63
2023/04/01 01:45:59;;;;;;;4.18;1.80;;;9.40;99.90;;;;;;5090725;28;20032;-63
2023/04/01 01:48:26;;;;;;;5.53;1.88;;;;;;;;;;5090550;28;20112;-63
2023/04/01 01:50:53;;;;;;;4.07;1.48;;;;;;;;;;5090707;28;20470;-63
2023/04/01 01:53:19;;;;;;;5.70;2.25;;;;;;;;;;5090426;28;20067;-63
2023/04/01 01:55:46;;;;;;;5.57;1.88;;;;;;;;;;5090389;28;20451;-63
2023/04/01 01:58:32;;;;;;;6.45;2.85;;;;;;;;;;5090244;28;20032;-64
2023/04/01 02:01:03;;;;;;;5.97;2.38;;;;;;;;;;5090304;28;20029;-64
2023/04/01 02:03:31;;;;;;;4.28;2.35;;;;;;;;;;5090324;28;20074;-64
2023/04/01 02:05:58;;;;;;;4.53;2.80;;;;;;;;;;5090282;28;20036;-63
2023/04/01 02:08:26;;;;;;;4.43;2.80;;;;;;;;;;5090228;28;20524;-63
2023/04/01 02:10:56;;;;;;;8.32;3.20;;;;;;;;;;5090127;28;20466;-63
2023/04/01 02:13:27;;;;;;;4.65;3.30;;;;;;;;;;5090076;28;20024;-63
2023/04/01 02:15:55;;;;;;;4.07;3.28;;;;;;;;;;5088850;28;20028;-63
2023/04/01 02:18:22;;;;;;;5.00;3.42;;;;;;;;;;5088840;28;20048;-63
2023/04/01 02:20:49;;;;;;;3.42;2.95;;;;;;;;;;5089962;28;20021;-63
2023/04/01 02:23:15;;;;;;;5.65;3.42;;;;;;;;;;5090165;28;20494;-63
2023/04/01 02:25:42;;;;;;;5.18;3.30;;;;;;;;;;5089694;28;20028;-63
2023/04/01 02:28:08;;;;;;;5.32;3.10;;;;;;;;;;5089893;28;20029;-63
2023/04/01 02:30:36;;;;;;;5.30;3.00;;;;;;;;;;5089826;28;20032;-63
2023/04/01 02:33:02;;;;;;;5.38;3.00;;;;;;;;;;5089895;28;20037;-63
2023/04/01 02:35:28;;;;;;;6.45;2.83;;;;;;;;;;5089465;28;20048;-63
2023/04/01 02:37:55;;;;;;;5.70;3.47;;;;;;;;;;5089740;28;20112;-64
2023/04/01 02:40:21;;;;;;;7.53;4.00;;;;;;;;;;5089719;28;20031;-63
2023/04/01 02:42:47;;;;;;;8.02;4.43;;;;;;;;;;5089392;28;20032;-63
2023/04/01 02:45:14;;;;;;;8.27;5.13;;;;;;;;;;5087792;28;20440;-63
2023/04/01 02:47:40;;;;;;;5.88;4.43;;;;;;;;;;5075927;28;20107;-63
2023/04/01 02:50:06;;;;;;;9.80;4.50;;;;;;;;;;5076209;28;20109;-63
2023/04/01 02:52:33;;;;;;;6.78;4.85;;;;;;;;;;5075944;28;20071;-63
2023/04/01 02:54:59;;;;;;;8.32;5.05;;;;;;;;;;5075823;28;20497;-64
2023/04/01 02:57:25;;;;;;;7.22;3.95;;;;;;;;;;5075722;28;20028;-63
2023/04/01 02:59:51;;;;;;;6.15;3.78;;;;;;;;;;5075713;28;20556;-63
2023/04/01 03:02:18;;;;;;;5.85;3.78;;;;;;;;;;5074557;28;20086;-63
2023/04/01 03:04:44;;;;;;;3.38;2.80;;;;;;;;;;5075671;28;20533;-63
2023/04/01 03:07:10;;;;;;;2.88;2.28;;;;;;;;;;5075640;28;20103;-63
2023/04/01 03:09:37;;;;;;;4.45;1.90;;;;;;;;;;5075568;28;20063;-63
2023/04/01 03:12:03;;;;;;;3.45;1.70;;;;;;;;;;5075576;28;20399;-63
2023/04/01 03:14:29;;;;;;;2.28;2.00;;;;;;;;;;5075616;28;20039;-64
2023/04/01 03:16:55;;;;;;;4.05;1.80;;;;;;;;;;5075508;28;20020;-63
2023/04/01 03:19:21;;;;;;;2.63;1.70;;;;;;;;;;5075337;28;20074;-63
2023/04/01 03:21:47;;;;;;;4.18;1.90;;;;;;;;;;5075472;28;20101;-63
2023/04/01 03:24:13;;;;;;;1.85;1.50;;;;;;;;;;5075303;28;20556;-63
2023/04/01 03:26:39;;;;;;;4.15;1.50;;;;;;;;;;5075295;28;20036;-63
2023/04/01 03:29:05;;;;;;;5.20;1.90;;;;;;;;;;5075391;28;20025;-63
2023/04/01 03:31:31;;;;;;;2.33;2.13;;;;;;;;;;5075151;28;20027;-64
2023/04/01 03:33:57;;;;;;;2.10;1.52;;;;;;;;;;5074934;28;20494;-63
2023/04/01 03:36:23;;;;;;;3.08;2.10;;;;;;;;;;5075194;28;20021;-63
2023/04/01 03:38:49;;;;;;;5.38;1.90;;;;;;;;;;5075303;28;20482;-64
2023/04/01 03:41:16;;;;;;;4.13;2.63;;;;;;;;;;5074942;28;20107;-64
2023/04/01 03:43:42;;;;;;;2.50;1.67;;;;;;;;;;5074901;28;20021;-64
2023/04/01 03:46:08;;;;;;;2.45;1.40;;;;;;;;;;5074882;28;20528;-63
2023/04/01 03:48:34;;;;;;;3.17;1.35;;;;;;;;;;5074759;28;20025;-64
2023/04/01 03:51:00;;;;;;;1.30;1.20;;;;;;;;;;5074983;28;20066;-64
2023/04/01 03:53:26;;;;;;;1.95;1.15;;;;;;;;;;5074912;28;20221;-67
2023/04/01 03:55:53;;;;;;;1.58;1.30;;;;;;;;;;5074526;28;20025;-64
2023/04/01 03:58:19;;;;;;;1.80;1.23;;;;;;;;;;5073779;28;20028;-63
2023/04/01 04:00:45;;;;;;;4.20;1.20;;;;;;;;;;5074818;28;20094;-63
2023/04/01 04:03:11;;;;;;;3.50;1.38;;;;;;;;;;5074626;28;20025;-63
2023/04/01 04:05:37;;;;;;;2.83;1.20;;;;;;;;;;5074707;28;20402;-63
2023/04/01 04:08:03;;;;;;;1.52;1.42;;;;;;;;;;5074527;28;20028;-63
2023/04/01 04:10:29;;;;;;;1.77;1.15;;;;;;;;;;5074496;28;20075;-63
2023/04/01 04:12:55;;;;;;;2.00;1.42;;;;;;;;;;5074552;28;20035;-63
2023/04/01 04:15:21;;;;;;;4.70;1.60;;;;;;;;;;5073911;28;20031;-64
2023/04/01 04:17:47;;;;;;;3.42;1.83;;;;;;;;;;5074463;28;20032;-63
2023/04/01 04:20:13;;;;;;;2.85;1.65;;;;;;;;;;5074271;28;20372;-63
2023/04/01 04:22:39;;;;;;;2.50;1.40;;;;;;;;;;5074190;28;20107;-63
2023/04/01 04:25:05;;;;;;;2.53;1.80;;;;;;;;;;5074365;28;20125;-63
2023/04/01 04:27:31;;;;;;;1.80;1.60;;;;;;;;;;5074082;28;20020;-64
2023/04/01 04:29:57;;;;;;;3.03;2.00;;;;;;;;;;5074238;28;20398;-63
2023/04/01 04:32:23;;;;;;;3.55;2.17;;;;;;;;;;5074165;28;20128;-63
2023/04/01 04:34:49;;;;;;;2.90;1.83;;;;;;;;;;5073576;28;20447;-63
2023/04/01 04:37:15;;;;;;;2.08;1.67;;;;;;;;;;5074029;28;20425;-63
2023/04/01 04:39:41;;;;;;;2.33;1.30;;;;;;;;;;5073980;28;20418;-63
2023/04/01 04:42:07;;;;;;;1.77;1.33;;;;;;;;;;5073722;28;20035;-63
2023/04/01 04:44:33;;;;;;;2.22;1.30;;;;;;;;;;5074005;28;20114;-64
2023/04/01 04:46:59;;;;;;;2.10;1.35;;;;;;;;;;5073800;28;20063;-64
2023/04/01 04:49:25;;;;;;;3.20;1.52;;;;;;;;;;5073847;28;20025;-64
2023/04/01 04:51:52;;;;;;;2.28;1.70;;;;;;;;;;5073786;28;20021;-64
2023/04/01 04:54:18;;;;;;;2.90;2.50;;;;;;;;;;5073574;28;20025;-64
2023/04/01 04:56:44;;;;;;;4.28;2.17;;;;;;;;;;5073694;28;20042;-64
2023/04/01 04:59:10;;;;;;;4.03;2.33;;;;;;;;;;5073653;28;20150;-64
2023/04/01 05:01:36;;;;;;;3.13;2.40;;;;;;;;;;5073539;28;20024;-64
2023/04/01 05:04:02;;;;;;;6.57;3.15;;;;;;;;;;5073339;28;20016;-65
2023/04/01 05:06:29;;;;;;;3.10;2.80;;;;;;;;;;5073301;28;20032;-64
2023/04/01 05:08:55;;;;;;;6.38;3.78;;;;;;;;;;5072925;28;20120;-64
2023/04/01 05:11:21;;;;;;;5.47;4.65;;;;;;;;;;5073554;28;20187;-65
2023/04/01 05:13:47;;;;;;;7.07;5.43;;;;;;;;;;5073482;28;20032;-64
2023/04/01 05:16:16;;;;;;;7.90;5.25;;;;;;;;;;5073301;28;20032;-64
2023/04/01 05:18:42;;;;;;;7.82;5.97;;;;;;;;;;5073200;28;20111;-64
2023/04/01 05:21:09;;;;;;;7.47;5.97;;;;;;;;;;5073265;28;20067;-64
2023/04/01 05:23:35;;;;;;;8.10;5.90;;;;;;;;;;5073470;28;20040;-64
2023/04/01 05:26:05;;;;;;;9.75;6.35;;;;;;;;;;5073522;28;20479;-65
2023/04/01 05:28:31;;;;;;;6.30;4.40;;;;;;;;;;5073352;28;20036;-66
2023/04/01 05:31:00;;;;;;;6.85;5.00;;;;;;;;;;5073435;28;20028;-64
2023/04/01 05:33:26;;;;;;;5.90;4.50;;;;;;;;;;5073107;28;20013;-65
2023/04/01 05:35:52;;;;;;;7.75;5.22;;;;;;;;;;5072688;28;20047;-64
2023/04/01 05:38:17;;;;;;;7.53;5.57;;;;;;;;;;5073164;28;20028;-64
2023/04/01 05:40:43;;;;;;;9.48;6.63;;;;;;;;;;5073140;28;20029;-64
2023/04/01 05:43:09;;;;;;;8.68;6.65;;;;;;;;;;5073270;28;20103;-64
2023/04/01 05:45:35;;;;;;;11.05;7.70;;;;;;;;;;5073249;28;20029;-64
2023/04/01 05:48:01;;;;;;;13.23;8.40;;;;;;;;;;5072981;28;20110;-65
2023/04/01 05:50:27;;;;;;;13.15;9.18;;;;;;;;;;5073329;28;20036;-64
2023/04/01 05:52:53;;;;;;;15.30;9.27;;;;;;;;;;5073153;28;20123;-64
2023/04/01 05:55:19;;;;;;;13.82;8.43;;;;;;;;;;5072815;28;20044;-63
2023/04/01 05:57:46;;;;;;;13.35;8.75;;;;;;;;;;5072943;28;20071;-65
2023/04/01 06:00:12;;;;;;;18.90;10.38;;;;;;;;;;5072917;28;20385;-64
2023/04/01 06:02:39;;;;;;;13.55;9.32;;;;;;;;;;5073215;28;20470;-63
2023/04/01 06:05:17;;;;;;;11.90;9.50;;;;;;;;;;5073148;28;20043;-64
2023/04/01 06:07:43;;;;;;;14.48;9.15;;;;;;;;;;5072974;28;20032;-64
2023/04/01 06:10:13;;;;;;;12.85;8.93;;;;;;;;;;5073016;28;20040;-64
2023/04/01 06:12:45;;;;;;;9.88;7.47;;;;;;;;;;5072995;28;20086;-64
2023/04/01 06:15:31;;;;;;;7.15;6.05;;;;;;;;;;5072754;28;20065;-63
2023/04/01 06:18:17;;;;;;;7.28;6.00;;;;;;;;;;5072870;28;20573;-63
2023/04/01 06:20:58;;;;;;;7.32;5.15;;;;;;;;;;5073276;28;20493;-63
2023/04/01 06:23:31;;;;;;;7.47;5.85;;;;;;;;;;5076401;28;20028;-65
2023/04/01 06:25:57;;;;;;;;;;;;;;;;;;5077091;28;20090;-65
2023/04/01 06:28:37;;;;;;;11.98;8.40;;;;;;;;;;5076303;28;19912;-64
2023/04/01 06:31:12;;;;;;;12.32;8.18;;;;;;;;;;5076241;28;20483;-65
2023/04/01 06:33:43;;;;;;;10.90;7.82;;;;;;;;;;5076393;28;20024;-67
2023/04/01 06:36:17;;;;;;;9.70;7.53;;;;;;;;;;5076189;28;20029;-63
2023/04/01 06:41:29;;;;;;;9.90;7.03;;;;;;;;;;5090858;28;20307;-64
2023/04/01 06:44:16;;;;;;;13.45;7.43;;;;;;;;;;5090853;28;20028;-63
2023/04/01 06:46:47;;;;;;;10.73;8.13;;;;;;;;;;5090413;28;20122;-63
2023/04/01 06:49:22;;;;;;;9.77;7.75;;;;;;;;;;5090843;28;20517;-63
2023/04/01 06:51:56;;;;;;;11.18;8.30;;;;;;;;;;5090813;28;20032;-63
2023/04/01 06:54:24;;;;;;;9.15;7.13;;;;;;;;;;5090649;28;20036;-63
2023/04/01 06:56:55;;;;;;;8.77;7.20;;;;;;;;;;5090504;28;20036;-63
2023/04/01 06:59:22;;;;;;;7.72;5.40;;;;;;;;;;5090327;28;20074;-63
2023/04/01 07:01:51;;;;;;;7.68;5.60;;;;;;;;;;5090392;28;20020;-63
2023/04/01 07:04:21;;;;;;;8.05;6.60;;;;;;;;;;5090160;28;20394;-63
2023/04/01 07:06:51;;;;;;;7.78;5.30;;;;;;;;;;5090272;28;20029;-63
2023/04/01 07:09:20;;;;;;;5.65;4.85;;;;;;;;;;5090215;28;20024;-63
2023/04/01 07:11:46;;;;;;;6.45;5.75;;;;;;;;;;5090451;28;20032;-63
2023/04/01 07:14:17;;;;;;;7.50;5.53;;;;;;;;;;5090281;28;20036;-63
2023/04/01 07:16:47;;;;;;;5.10;3.80;;;;;;;;;;5090122;28;20387;-63
2023/04/01 07:19:17;;;;;;;6.30;5.70;;;;;;;;;;5090166;28;20039;-62
2023/04/01 07:22:03;;;;;;;4.95;4.50;;;;;;;;;;5090028;28;20155;-63
2023/04/01 07:24:34;;;;;;;5.97;4.55;;;;;;;;;;5090223;28;20059;-63
2023/04/01 07:27:00;;;;;;;4.40;3.97;;;;;;;;;;5089808;28;20024;-63
2023/04/01 07:29:27;;;;;;;4.70;3.88;;;;;;;;;;5089825;28;20028;-63
2023/04/01 07:34:57;;;;;;;7.18;4.53;;;;;;;;;;5070598;28;20766;-63
2023/04/01 07:37:30;;;;;;;5.63;3.85;;;;;;;;;;5070639;28;20523;-63
2023/04/01 07:40:04;;;;;;;7.25;5.50;;;;;;;;;;5070472;28;20025;-63
2023/04/01 07:42:39;;;;;;;6.72;4.63;;;;;;;;;;5070582;28;20039;-63
2023/04/01 07:45:10;;;;;;;6.57;4.13;;;;;;;;;;5070634;28;20107;-63
2023/04/01 07:50:31;;;;;;;5.90;3.70;;;;;;;;;;5090822;27;20401;-63
2023/04/01 07:53:10;;;;;;;4.80;3.53;;;;;;;;;;5090662;28;20116;-63
2023/04/01 07:55:41;;;;;;;4.38;2.80;;;;;;;;;;5090957;28;20372;-65
2023/04/01 07:58:13;;;;;;;2.42;2.20;;;;;;;;;;5090720;28;20462;-65
2023/04/01 08:00:44;;;;;;;5.45;2.65;;;;;;;;;;5090783;28;20020;-63
2023/04/01 08:03:26;;;;;;;3.45;2.70;;;;;;;;;;5090541;28;20107;-63
2023/04/01 08:06:12;;;;;;;4.05;2.97;;;;;;;;;;5090385;28;20025;-63
2023/04/01 08:08:53;;;;;;;2.42;2.22;;;;;;;;;;5090416;28;20039;-63
2023/04/01 08:14:12;;;;;;;2.75;2.50;;;;;;;;;;5070698;28;20379;-62
2023/04/01 08:16:58;;;;;;;2.72;2.22;;;;;;;;;;5070556;28;20069;-63
2023/04/01 08:22:11;;;;;;;3.13;2.00;;;;;;;;;;5111193;27;20380;-62
2023/04/01 08:24:45;;;;;;;1.92;1.83;;;;;;;;;;5111143;28;20378;-63
2023/04/01 08:27:14;;;;;;;4.40;2.00;;;;;;;;;;5111245;28;20409;-63
2023/04/01 08:29:52;;;;;;;2.55;2.22;;;;;;;;;;5111120;28;20031;-63
2023/04/01 08:32:21;;;;;;;3.13;2.20;;;;;;;;;;5109828;28;20035;-63
2023/04/01 08:34:51;;;;;;;4.25;2.38;;;;;;;;;;5110895;28;20499;-63
2023/04/01 08:37:21;;;;;;;4.47;2.83;;;;;;;;;;5109690;28;20028;-63
2023/04/01 08:39:56;;;;;;;3.38;2.60;;;;;;;;;;5110924;28;20074;-63
2023/04/01 08:42:42;;;;;;;4.07;2.13;;;;;;;;;;5110782;28;20052;-63
2023/04/01 08:45:28;;;;;;;4.28;2.90;;;;;;;;;;5110687;28;20397;-63
2023/04/01 08:48:08;;;;;;;3.35;2.58;;;;;;;;;;5110367;28;20370;-63
2023/04/01 08:50:54;;;;;;;4.63;2.70;;;;;;;;;;5110662;28;20035;-63
2023/04/01 08:53:25;;;;;;;6.43;2.95;;;;;;;;;;5110452;28;20032;-63
2023/04/01 08:56:03;;;;;;;4.93;2.97;;;;;;;;;;5110475;28;20016;-64
2023/04/01 08:58:35;;;;;;;3.45;2.35;;;;;;;;;;5110654;28;20398;-63
2023/04/01 09:01:21;;;;;;;2.97;2.00;;;;;;;;;;5110405;28;20500;-64
2023/04/01 09:04:07;;;;;;;2.55;1.70;;;;;;;;;;5110068;27;20028;-64
2023/04/01 09:06:40;;;;;;;2.28;2.00;;;;;;;;;;5110497;28;20035;-64
2023/04/01 09:09:18;;;;;;;2.90;2.10;;;;;;;;;;5109308;28;20153;-64
2023/04/01 09:11:59;;;;;;;2.40;2.05;;;;;;;;;;5110417;28;20077;-63
2023/04/01 09:14:31;;;;;;;3.38;2.20;;;;;;;;;;5110161;28;20028;-63
2023/04/01 09:17:07;;;;;;;3.35;2.40;;;;;;;;;;5110296;28;20039;-63
2023/04/01 09:19:46;;;;;;;4.30;2.67;;;;;;;;;;5110326;28;20481;-63
2023/04/01 09:22:20;;;;;;;3.92;2.45;;;;;;;;;;5110155;28;20046;-63
2023/04/01 09:25:06;;;;;;;3.15;2.30;;;;;;;;;;5110157;28;20392;-63
2023/04/01 09:27:52;;;;;;;3.47;2.15;;;;;;;;;;5110037;28;20028;-63
2023/04/01 09:30:29;;;;;;;2.30;2.10;;;;;;;;;;5109763;28;20044;-63
2023/04/01 09:33:04;;;;;;;2.83;2.38;;;;;;;;;;5099390;28;20073;-63
2023/04/01 09:35:40;;;;;;;3.67;2.40;;;;;;;;;;5096152;28;20474;-62
2023/04/01 09:38:26;;;;;;;4.80;2.40;;;;;;;;;;5096219;28;20020;-63
2023/04/01 09:43:39;;;;;;;3.70;2.95;;;;;;;;;;5070617;28;20386;-63
2023/04/01 09:46:13;;;;;;;3.15;2.65;;;;;;;;;;5070559;28;20036;-64
2023/04/01 09:48:59;;;;;;;2.30;2.10;;;;;;;;;;5070737;28;20528;-63
2023/04/01 09:51:31;;;;;;;2.30;2.00;;;;;;;;;;5070313;28;20017;-63
2023/04/01 09:56:55;;;;;;;3.42;2.60;;;;;;;;;;5111250;27;20292;-63
2023/04/01 09:59:32;;;;;;;4.15;2.40;;;;;;;;;;5110972;28;20028;-63
2023/04/01 10:05:02;;;;;;;3.85;2.20;;;;;;;;;;5111189;27;20384;-63
2023/04/01 10:07:39;;;;;;;3.13;2.63;;;;;;;;;;5111007;28;20470;-63
2023/04/01 10:10:25;;;;;;;4.03;3.08;;;;;;;;;;5111251;28;20036;-64
2023/04/01 10:13:11;;;;;;;6.70;3.22;;;;;;;;;;5110930;28;20047;-63
2023/04/01 10:15:46;;;;;;;3.70;3.20;;;;;;;;;;5110972;28;20020;-64
2023/04/01 10:18:19;;;;;;;3.40;2.78;;;;;;;;;;5110843;28;20055;-63
2023/04/01 10:20:54;;;;;;;3.33;3.03;;;;;;;;;;5111048;28;20570;-63
2023/04/01 10:23:40;;;;;;;4.05;3.25;;;;;;;;;;5110823;28;20027;-63
2023/04/01 10:26:23;;;;;;;4.38;3.40;;;;;;;;;;5110860;28;20028;-64
2023/04/01 10:29:09;;;;;;;4.03;3.20;;;;;;;;;;5110988;28;20023;-63
2023/04/01 10:31:43;;;;;;;5.18;3.80;;;;;;;;;;5110609;28;20037;-63
2023/04/01 10:36:57;;;;;;;6.05;4.55;;;;;;;;;;5111089;27;20385;-63
2023/04/01 10:39:43;;;;;;;5.15;4.00;;;;;;;;;;5111067;28;20072;-63
2023/04/01 10:42:25;;;;;;;6.82;4.38;;;;;;;;;;5111013;28;20489;-63
2023/04/01 10:45:05;;;;;;;4.93;4.05;;;;;;;;;;5110813;28;20461;-63
2023/04/01 10:47:51;;;;;;;5.22;4.07;;;;;;;;;;5111168;28;20032;-63
2023/04/01 10:50:37;;;;;;;6.65;4.70;;;;;;;;;;5110664;28;20031;-63
2023/04/01 10:53:23;;;;;;;6.38;5.25;;;;;;;;;;5111061;28;20032;-63
2023/04/01 10:56:08;;;;;;;6.55;4.60;;;;;;;;;;5110630;28;20042;-63
2023/04/01 10:58:54;;;;;;;7.30;5.07;;;;;;;;;;5110704;28;20474;-63
2023/04/01 11:01:40;;;;;;;6.35;5.15;;;;;;;;;;5110783;28;20105;-64
2023/04/01 11:04:26;;;;;;;7.85;5.55;;;;;;;;;;5110676;28;20028;-63
2023/04/01 11:07:12;;;;;;;6.30;5.13;;;;;;;;;;5110453;28;20039;-63
2023/04/01 11:09:58;;;;;;;6.53;5.25;;;;;;;;;;5110464;28;20103;-63
2023/04/01 11:12:35;;;;;;;8.35;5.53;;;;;;;;;;5110556;28;20504;-63
2023/04/01 11:15:20;;;;;;;7.63;5.68;;;;;;;;;;5110401;28;20123;-63
2023/04/01 11:18:06;;;;;;;6.65;5.40;;;;;;;;;;5110519;28;20020;-63
2023/04/01 11:20:44;;;;;;;7.30;5.70;;;;;;;;;;5110446;28;20099;-63
2023/04/01 11:23:15;;;;;;;9.93;5.78;;;;;;;;;;5110174;28;20051;-63
2023/04/01 11:25:50;;;;;;;8.18;6.13;;;;;;;;;;5110240;28;20035;-63
2023/04/01 11:28:23;;;;;;;11.25;7.22;;;;;;;;;;5110206;28;20398;-63
2023/04/01 11:30:49;;;;;;;;;;;;;;;;;;5110744;28;20044;-63
2023/04/01 11:33:20;;;;;;;11.40;7.30;;;;;;;;;;5110138;28;19904;-63
2023/04/01 11:36:07;;;;;;;9.82;7.45;;;;;;;;;;5109798;28;20059;-63
2023/04/01 11:38:46;;;;;;;8.95;6.88;;;;;;;;;;5109949;27;20497;-64
2023/04/01 11:41:21;;;;;;;10.00;7.53;;;;;;;;;;5110142;28;20020;-63
2023/04/01 11:46:37;;;;;;;9.35;7.63;;;;;;;;;;5111282;27;20351;-62
2023/04/01 11:49:21;;;;;;;10.35;7.50;;;;;;;;;;5111022;28;20499;-62
2023/04/01 11:52:05;;;;;;;8.68;7.35;;;;;;;;;;5111132;28;20455;-62
2023/04/01 11:54:51;;;;;;;12.35;7.40;;;;;;;;;;5110991;28;20042;-62
2023/04/01 11:57:37;;;;;;;9.55;7.07;;;;;;;;;;5110895;28;20535;-62
2023/04/01 12:00:23;;;;;;;10.82;7.05;;;;;;;;;;5111093;27;20036;-62
2023/04/01 12:03:09;;;;;;;8.40;6.25;;;;;;;;;;5110961;28;20441;-63
2023/04/01 12:05:39;;;;;;;8.48;6.30;;;;;;;;;;5110897;28;20024;-63
2023/04/01 12:08:25;;;;;;;8.45;6.70;;;;;;;;;;5110829;28;20497;-63
2023/04/01 12:11:02;;;;;;;8.77;6.85;;;;;;;;;;5109934;28;20032;-63
2023/04/01 12:13:48;;;;;;;8.95;6.70;;;;;;;;;;5110640;28;20152;-63
2023/04/01 12:16:33;;;;;;;8.77;6.10;;;;;;;;;;5110765;28;20031;-63
2023/04/01 12:19:19;;;;;;;6.05;5.45;;;;;;;;;;5110715;28;20097;-63
2023/04/01 12:21:59;;;;;;;6.85;6.13;;;;;;;;;;5110549;28;20389;-63
2023/04/01 12:24:32;;;;;;;7.30;6.60;;;;;;;;;;5110438;28;20032;-63
2023/04/01 12:27:02;;;;;;;8.93;7.85;;;;;;;;;;5110318;28;20028;-63
2023/04/01 12:29:48;;;;;;;8.32;7.30;;;;;;;;;;5110595;28;20079;-63
2023/04/01 12:32:34;;;;;;;9.32;8.00;;;;;;;;;;5110220;28;20024;-63
2023/04/01 12:35:06;;;;;;;12.40;8.35;;;;;;;;;;5110110;28;20047;-63
2023/04/01 12:37:40;;;;;;;9.35;7.53;;;;;;;;;;5110145;28;20505;-65
2023/04/01 12:40:17;;;;;;;11.60;8.23;;;;;;;;;;5110263;28;20375;-64
2023/04/01 12:42:52;;;;;;;9.82;8.50;;;;;;;;;;5110134;28;20398;-63
2023/04/01 12:45:35;;;;;;;8.98;7.50;;;;;;;;;;5109883;28;20050;-64
2023/04/01 12:48:21;;;;;;;11.63;7.93;;;;;;;;;;5110205;28;20069;-63
2023/04/01 12:50:58;;;;;;;8.95;7.07;;;;;;;;;;5109929;28;20111;-64
2023/04/01 12:53:44;;;;;;;8.52;7.00;;;;;;;;;;5110080;28;20038;-63
2023/04/01 12:56:15;;;;;;;7.40;6.45;;;;;;;;;;5105832;28;20024;-63
2023/04/01 12:59:20;;;;;;;9.43;7.35;;;12.20;99.90;;;;;;5096159;28;20032;-64
2023/04/01 13:01:55;;;;;;;8.27;6.80;;;;;;;;;;5096070;28;20016;-63
2023/04/01 13:04:34;;;;;;;5.47;4.80;;;12.00;99.90;;;;;;5096021;28;20038;-63
2023/04/01 13:07:23;;;;;;;6.57;5.18;;;11.80;99.90;;;;;;5096038;28;20023;-64
2023/04/01 13:10:20;;;;;;;6.07;5.10;;;11.70;99.90;;;;;;5095002;28;20027;-64
2023/04/01 13:13:15;;;;;;;6.25;5.28;;;11.60;99.90;;;;;;5096006;28;20028;-64
2023/04/01 13:15:43;;;;;;;6.57;5.47;;;;;;;;;;5095908;28;20481;-64
2023/04/01 13:18:21;;;;;;;7.47;6.47;;;;;;;;;;5096159;28;20097;-64
2023/04/01 13:21:07;;;;;;;10.45;8.30;;;;;;;;;;5095584;28;20027;-64
2023/04/01 13:23:53;;;;;;;9.57;7.47;;;11.60;99.90;;;;;;5095795;28;20036;-64
2023/04/01 13:26:46;;;;;;;11.43;8.48;;;11.60;99.90;;;;;;5095479;28;20115;-64
2023/04/01 13:29:20;;;;;;;9.32;7.35;;;11.60;99.90;;;;;;5095568;28;20077;-64
2023/04/01 13:32:25;;;;;;;9.02;8.00;;;11.00;99.90;;;;;;5095720;28;20390;-63
2023/04/01 13:35:15;;;;;;;9.63;7.28;;;11.50;99.90;;;;;;5095434;28;20072;-64
2023/04/01 13:38:21;;;;;;;8.15;7.28;;;11.60;99.90;;;;;;5095629;28;20028;-64
2023/04/01 13:41:21;;;;;;;10.57;7.85;;;11.50;99.90;;;;;;5095554;28;20035;-64
2023/04/01 13:43:57;;;;;;;11.27;7.88;;;11.70;99.90;;;;;;5095321;28;20470;-64
2023/04/01 13:46:51;;;;;;;10.23;8.40;;;11.50;99.90;;;;;;5094995;28;20044;-63
2023/04/01 13:49:43;;;;;;;10.25;9.15;;;11.60;99.90;;;;;;5095296;28;20069;-64
2023/04/01 13:52:36;;;;;;;13.00;9.77;;;11.40;99.90;;;;;;5095167;28;20541;-63
2023/04/01 13:55:25;;;;;;;13.13;10.52;;;11.30;99.90;;;;;;5095265;28;20106;-63
2023/04/01 13:58:20;;;;;;;13.35;10.35;;;11.30;99.90;;;;;;5094067;28;20028;-63
2023/04/01 14:01:26;;;;;;;14.10;10.52;;;11.40;99.90;;;;;;5095047;28;20073;-63
2023/04/01 14:04:31;;;;;;;11.55;10.27;;;10.80;99.90;;;;;;5094942;28;20043;-63
2023/04/01 14:10:18;;;;;;;10.07;9.02;;;11.30;99.90;;;;;;5070707;28;20881;-63
2023/04/01 14:13:05;;;;;;;15.50;11.77;;;11.30;99.90;;;;;;5070676;28;20443;-63
2023/04/01 14:15:48;;;;;;;12.98;10.60;;;11.20;99.90;;;;;;5070449;28;20475;-63
2023/04/01 14:18:54;;;;;;;15.57;12.02;;;11.10;99.90;;;;;;5070656;28;20495;-64
2023/04/01 14:21:33;;;;;;;14.05;10.98;;;11.10;99.90;;;;;;5070421;28;20059;-64
2023/04/01 14:24:20;;;;;;;13.30;11.13;;;11.00;99.90;;;;;;5070367;28;20079;-64
2023/04/01 14:27:17;;;;;;;16.33;12.20;;;10.90;99.90;;;;;;5070322;28;20055;-64
2023/04/01 14:30:06;;;;;;;14.98;12.77;;;11.00;99.90;;;;;;5069988;28;20108;-64
2023/04/01 14:32:51;;;;;;;16.90;13.45;;;10.60;99.90;;;;;;5070267;28;20048;-64
2023/04/01 14:35:31;;;;;;;17.48;13.82;;;11.00;99.90;;;;;;5070103;28;20064;-64
2023/04/01 14:38:04;;;;;;;16.92;13.75;;;11.30;99.90;;;;;;5070116;28;20462;-64
2023/04/01 14:40:59;;;;;;;17.95;13.32;;;11.10;99.90;;;;;;5070008;28;20418;-69
2023/04/01 14:43:55;;;;;;;15.82;13.63;;;11.30;99.90;;;;;;5070001;28;20078;-64
2023/04/01 14:46:50;;;;;;;15.40;12.65;;;11.70;99.90;;;;;;5070035;28;20036;-64
2023/04/01 14:49:36;;;;;;;14.57;12.13;;;11.10;99.90;;;;;;5069861;28;20060;-64
2023/04/01 14:52:28;;;;;;;15.70;12.20;;;11.40;99.90;;;;;;5069691;28;20025;-64
2023/04/01 14:54:56;;;;;;;15.20;11.82;;;11.20;99.90;;;;;;5069508;28;20141;-64
2023/04/01 14:57:26;;;;;;;14.15;11.50;;;11.10;99.90;;;;;;5069837;28;20024;-63
2023/04/01 15:00:09;;;;;;;17.20;11.45;;;11.50;99.90;;;;;;5069683;28;20078;-64
2023/04/01 15:03:00;;;;;;;14.30;10.53;;;11.70;99.90;;;;;;5070018;28;20138;-64
2023/04/01 15:05:56;;;;;;;14.35;10.25;;;11.40;99.90;;;;;;5069307;28;20031;-64
2023/04/01 15:08:29;;;;;;;11.73;9.82;;;11.30;99.90;;;;;;5069175;28;20123;-63
2023/04/01 15:11:23;;;;;;;13.10;10.60;;;11.40;99.90;;;;;;5069517;28;20029;-64
2023/04/01 15:13:58;;;;;;;16.10;11.32;;;11.40;99.90;;;;;;5069104;28;20474;-64
2023/04/01 15:16:44;;;;;;;14.80;11.65;;;11.20;99.90;;;;;;5069143;28;20038;-67
2023/04/01 15:19:49;;;;;;;15.40;12.73;;;11.10;99.90;;;;;;5068298;28;20056;-63
2023/04/01 15:22:55;;;;;;;15.45;12.80;;;11.10;99.90;;;;;;5055670;28;20422;-64
2023/04/01 15:28:40;;;;;;;15.73;11.23;;;11.20;99.90;;;;;;5090893;28;20377;-63
2023/04/01 15:31:29;;;;;;;14.77;10.70;;;10.90;99.90;;;;;;5090442;28;20117;-63